Time;durP1;ratioP1;P1;durP2;ratioP2;P2;SDS_P1;SDS_P2;PMS_P1;PMS_P2;Temp;Humidity;BMP_temperature;BMP_pressure;BME280_temperature;BME280_humidity;BME280_pressure;Samples;Min_cycle;Max_cycle;Signal;HPM_P1;HPM_P2
2022/08/14 00:00:43;;;;;;;1.92;1.50;;;;;;;26.34;56.00;100839.09;5012970;28;20033;-69
2022/08/14 00:03:17;;;;;;;1.95;1.50;;;;;;;26.36;55.78;100842.19;5016886;28;20057;-69
2022/08/14 00:05:42;;;;;;;2.10;1.55;;;;;;;26.37;56.05;100835.41;5013504;28;20040;-70
2022/08/14 00:08:08;;;;;;;4.90;1.60;;;;;;;26.19;56.71;100834.63;5030693;28;20452;-69
2022/08/14 00:10:33;;;;;;;5.05;1.63;;;;;;;26.10;57.71;100827.06;5027000;28;20538;-69
2022/08/14 00:12:59;;;;;;;1.95;1.50;;;;;;;26.09;57.88;100825.56;5030787;28;20065;-69
2022/08/14 00:15:31;;;;;;;2.05;1.58;;;;;;;26.01;58.02;100826.25;5030889;28;20037;-69
2022/08/14 00:17:57;;;;;;;1.58;1.42;;;;;;;25.99;58.01;100820.41;5007419;28;20025;-69
2022/08/14 00:20:26;;;;;;;1.73;1.58;;;;;;;25.99;57.71;100820.41;5009399;28;20036;-69
2022/08/14 00:22:52;;;;;;;1.35;1.25;;;;;;;25.90;58.77;100821.91;5031221;28;20048;-69
2022/08/14 00:25:17;;;;;;;2.05;1.40;;;;;;;25.85;59.01;100821.75;5031275;28;20030;-69
2022/08/14 00:27:43;;;;;;;1.60;1.30;;;;;;;25.76;60.00;100825.25;5023537;28;20534;-69
2022/08/14 00:30:11;;;;;;;2.17;1.52;;;;;;;25.76;59.30;100813.44;5025852;28;20043;-69
2022/08/14 00:32:38;;;;;;;3.58;1.30;;;;;;;25.73;59.88;100808.81;5011161;28;20022;-70
2022/08/14 00:35:05;;;;;;;1.45;1.27;;;;;;;25.81;59.63;100801.81;5034614;28;20033;-69
2022/08/14 00:37:31;;;;;;;1.48;1.30;;;;;;;25.86;58.86;100809.50;5016194;28;20037;-69
2022/08/14 00:39:57;;;;;;;4.85;1.55;;;;;;;25.79;59.84;100812.53;5022564;28;20124;-69
2022/08/14 00:42:23;;;;;;;1.77;1.40;;;;;;;25.77;59.59;100801.94;5030758;28;20045;-69
2022/08/14 00:44:49;;;;;;;1.65;1.25;;;;;;;25.85;59.47;100800.44;5028477;28;20041;-69
2022/08/14 00:47:16;;;;;;;1.65;1.42;;;;;;;25.80;60.04;100801.03;5022675;28;20043;-69
2022/08/14 00:49:44;;;;;;;2.25;1.42;;;;;;;25.72;60.18;100796.25;5018562;28;20053;-69
2022/08/14 00:52:14;;;;;;;1.73;1.30;;;;;;;25.72;60.57;100794.28;5030622;28;20497;-69
2022/08/14 00:54:41;;;;;;;2.23;1.70;;;;;;;25.64;60.12;100795.78;5012505;28;20045;-70
2022/08/14 00:57:06;;;;;;;1.52;1.42;;;;;;;25.67;60.46;100796.84;5005714;28;20033;-70
2022/08/14 00:59:32;;;;;;;1.88;1.48;;;;;;;25.74;60.59;100788.28;5029640;28;20040;-69
2022/08/14 01:02:00;;;;;;;1.40;1.30;;;;;;;25.66;60.92;100793.34;5030833;28;20034;-69
2022/08/14 01:04:27;;;;;;;2.55;1.60;;;;;;;25.70;60.90;100793.19;5025988;28;20409;-69
2022/08/14 01:06:53;;;;;;;3.05;1.50;;;;;;;25.66;60.37;100792.56;5024007;28;20038;-69
2022/08/14 01:09:21;;;;;;;7.00;1.77;;;;;;;25.58;61.42;100791.28;5029713;28;20041;-69
2022/08/14 01:11:50;;;;;;;2.00;1.50;;;;;;;25.72;60.61;100796.25;5030209;28;20490;-69
2022/08/14 01:14:19;;;;;;;2.45;1.58;;;;;;;25.76;60.37;100791.38;5027002;28;20037;-69
2022/08/14 01:16:46;;;;;;;1.65;1.25;;;;;;;25.79;59.79;100790.44;5030384;28;20442;-69
2022/08/14 01:21:57;;;;;;;1.65;1.30;;;;;;;25.69;60.94;100786.13;5015560;28;20514;-69
2022/08/14 01:24:24;;;;;;;2.35;1.55;;;;;;;25.72;60.84;100785.22;5014476;28;20417;-69
2022/08/14 01:26:50;;;;;;;2.53;1.40;;;;;;;25.70;60.55;100782.16;5034733;28;20524;-69
2022/08/14 01:29:16;;;;;;;2.40;1.55;;;;;;;25.67;60.83;100778.28;5015933;28;20104;-69
2022/08/14 01:32:03;;;;;;;2.50;1.45;;;;;;;25.68;60.92;100782.59;5016159;28;20045;-69
2022/08/14 01:34:27;;;;;;;2.28;1.30;;;;;;;25.75;60.97;100773.25;5033959;28;20077;-69
2022/08/14 01:36:53;;;;;;;3.75;1.40;;;;;;;25.71;60.80;100778.94;5033944;28;20111;-69
2022/08/14 01:39:19;;;;;;;1.75;1.42;;;;;;;25.58;61.52;100772.75;5012993;28;20073;-69
2022/08/14 01:41:55;;;;;;;2.55;1.60;;;;;;;25.65;61.73;100777.22;5015704;28;20055;-68
2022/08/14 01:44:25;;;;;;;1.50;1.40;;;;;;;25.61;61.32;100773.84;5026745;28;20119;-69
2022/08/14 01:46:53;;;;;;;2.92;1.58;;;;;;;25.63;60.84;100774.13;5030420;28;20034;-69
2022/08/14 01:49:19;;;;;;;4.40;1.73;;;;;;;25.66;61.13;100774.00;5013894;28;20108;-69
2022/08/14 01:51:46;;;;;;;1.50;1.23;;;;;;;25.55;61.46;100768.13;5033382;28;20827;-71
2022/08/14 01:54:21;;;;;;;1.40;1.30;;;;;;;25.49;62.13;100763.69;5033316;28;20029;-69
2022/08/14 01:56:50;;;;;;;2.20;1.52;;;;;;;25.55;61.94;100759.09;5009006;28;20037;-69
2022/08/14 01:59:16;;;;;;;1.90;1.40;;;;;;;25.68;61.27;100748.72;5032971;28;20109;-69
2022/08/14 02:01:42;;;;;;;1.55;1.42;;;;;;;25.74;61.02;100753.19;5033241;28;20560;-68
2022/08/14 02:04:08;;;;;;;1.63;1.30;;;;;;;25.68;61.04;100752.25;5033175;28;20022;-69
2022/08/14 02:06:36;;;;;;;1.77;1.52;;;;;;;25.72;60.95;100752.88;5025885;28;20029;-69
2022/08/14 02:09:04;;;;;;;1.50;1.27;;;;;;;25.57;61.43;100748.38;5014810;28;20032;-69
2022/08/14 02:11:30;;;;;;;1.77;1.58;;;;;;;25.47;62.40;100746.81;5015596;28;20446;-69
2022/08/14 02:13:59;;;;;;;1.73;1.30;;;;;;;25.52;62.72;100751.72;5014043;28;20037;-69
2022/08/14 02:16:28;;;;;;;2.15;1.40;;;;;;;25.52;62.27;100751.72;5030172;28;20043;-69
2022/08/14 02:18:59;;;;;;;1.50;1.30;;;;;;;25.41;62.50;100759.66;5015087;28;20041;-69
2022/08/14 02:21:27;;;;;;;2.67;1.27;;;;;;;25.53;62.29;100747.75;5033242;28;20025;-69
2022/08/14 02:23:54;;;;;;;1.30;1.20;;;;;;;25.49;62.66;100744.38;5022103;28;20068;-69
2022/08/14 02:26:25;;;;;;;1.40;1.20;;;;;;;25.43;63.23;100737.91;5033503;28;20029;-68
2022/08/14 02:28:55;;;;;;;1.60;1.50;;;;;;;25.25;64.06;100735.03;5032673;28;20043;-68
2022/08/14 02:31:20;;;;;;;1.95;1.52;;;;;;;25.27;63.82;100738.09;4994472;28;20071;-69
2022/08/14 02:33:47;;;;;;;2.42;1.40;;;;;;;25.18;64.55;100743.59;5032143;28;20041;-68
2022/08/14 02:36:14;;;;;;;2.38;1.40;;;;;;;24.98;65.30;100738.41;5015307;28;20560;-69
2022/08/14 02:38:39;;;;;;;1.63;1.40;;;;;;;24.85;66.31;100741.25;5014584;28;20087;-69
2022/08/14 02:41:09;;;;;;;2.35;1.30;;;;;;;24.86;66.66;100731.00;5025859;28;20049;-69
2022/08/14 02:43:37;;;;;;;1.92;1.42;;;;;;;24.85;66.45;100732.97;5032897;28;20037;-68
2022/08/14 02:46:08;;;;;;;5.30;1.50;;;;;;;24.94;66.14;100730.28;5032147;28;20096;-68
2022/08/14 02:48:34;;;;;;;1.45;1.25;;;;;;;25.05;65.68;100727.88;5014988;28;20044;-69
2022/08/14 02:51:02;;;;;;;1.95;1.75;;;;;;;24.90;65.39;100713.13;5014109;28;20466;-69
2022/08/14 02:53:29;;;;;;;1.88;1.40;;;;;;;24.95;65.48;100722.78;5006370;28;20033;-69
2022/08/14 02:55:55;;;;;;;1.85;1.40;;;;;;;24.97;65.60;100715.59;5032689;28;20090;-69
2022/08/14 02:58:22;;;;;;;1.60;1.20;;;;;;;24.97;65.66;100718.34;5017104;28;20030;-69
2022/08/14 03:00:48;;;;;;;2.40;1.50;;;;;;;24.85;65.73;100712.94;5028743;28;20033;-69
2022/08/14 03:03:16;;;;;;;1.85;1.50;;;;;;;24.91;65.52;100711.13;5031765;28;20042;-69
2022/08/14 03:05:41;;;;;;;1.42;1.20;;;;;;;24.90;65.94;100713.13;5032242;28;20040;-69
2022/08/14 03:08:12;;;;;;;1.58;1.27;;;;;;;24.93;65.87;100712.19;5026558;28;20037;-69
2022/08/14 03:10:37;;;;;;;3.28;1.50;;;;;;;24.98;65.81;100706.13;5029138;28;20120;-69
2022/08/14 03:13:04;;;;;;;1.55;1.27;;;;;;;24.94;65.86;100716.50;5030778;28;20454;-69
2022/08/14 03:15:38;;;;;;;1.80;1.50;;;;;;;24.94;66.12;100704.69;5026630;28;20049;-69
2022/08/14 03:18:04;;;;;;;1.67;1.30;;;;;;;24.78;66.25;100713.97;5013935;28;20030;-68
2022/08/14 03:20:30;;;;;;;1.42;1.20;;;;;;;24.73;67.15;100711.78;5031699;28;20534;-69
2022/08/14 03:23:00;;;;;;;2.63;1.50;;;;;;;24.75;67.14;100720.38;5032267;28;20041;-69
2022/08/14 03:25:30;;;;;;;1.48;1.30;;;;;;;24.63;67.84;100718.44;5011779;28;20065;-69
2022/08/14 03:27:55;;;;;;;1.40;1.30;;;;;;;24.50;68.39;100716.94;5031423;28;20043;-69
2022/08/14 03:30:21;;;;;;;2.88;1.33;;;;;;;24.56;68.07;100707.69;5013814;28;20405;-69
2022/08/14 03:32:47;;;;;;;4.30;1.80;;;;;;;24.60;68.04;100710.28;5015390;28;20037;-68
2022/08/14 03:35:12;;;;;;;4.15;1.60;;;;;;;24.52;68.61;100703.50;5014854;28;20449;-68
2022/08/14 03:37:38;;;;;;;2.58;1.40;;;;;;;24.51;68.81;100708.25;5012338;28;20077;-69
2022/08/14 03:40:05;;;;;;;1.75;1.55;;;;;;;24.52;68.74;100709.00;5018943;28;20099;-69
2022/08/14 03:42:31;;;;;;;2.38;1.52;;;;;;;24.49;69.12;100704.38;5025556;28;20073;-69
2022/08/14 03:44:57;;;;;;;1.75;1.20;;;;;;;24.37;69.38;100703.22;5030750;28;20068;-68
2022/08/14 03:47:24;;;;;;;1.67;1.55;;;;;;;24.38;69.90;100707.53;5031084;28;20029;-69
2022/08/14 03:49:49;;;;;;;2.72;1.70;;;;;;;24.42;69.78;100701.91;5027033;28;20030;-69
2022/08/14 03:52:15;;;;;;;3.28;1.25;;;;;;;24.39;69.73;100700.78;5031285;28;20025;-69
2022/08/14 03:54:40;;;;;;;1.98;1.50;;;;;;;24.45;68.97;100696.25;5013894;28;20437;-69
2022/08/14 03:57:07;;;;;;;1.45;1.35;;;;;;;24.42;69.26;100696.38;5026831;28;20029;-69
2022/08/14 03:59:33;;;;;;;1.90;1.48;;;;;;;24.32;69.72;100697.53;4995434;28;20038;-69
2022/08/14 04:02:02;;;;;;;1.92;1.40;;;;;;;24.39;69.47;100691.78;5030586;28;20113;-69
2022/08/14 04:04:31;;;;;;;1.63;1.30;;;;;;;24.23;70.35;100692.72;5013841;28;20040;-68
2022/08/14 04:06:58;;;;;;;2.38;1.50;;;;;;;24.16;70.70;100696.50;5013669;28;20046;-68
2022/08/14 04:09:23;;;;;;;6.65;1.60;;;;;;;24.01;71.30;100689.16;5028839;28;20395;-69
2022/08/14 04:11:49;;;;;;;2.03;1.50;;;;;;;24.02;71.49;100685.22;5031308;22;20052;-67
2022/08/14 04:14:15;;;;;;;2.65;1.95;;;;;;;24.06;71.50;100685.88;5026626;28;20120;-68
2022/08/14 04:16:44;;;;;;;2.05;1.45;;;;;;;24.02;71.56;100687.97;5030790;28;20413;-71
2022/08/14 04:19:10;;;;;;;2.17;1.60;;;;;;;23.96;72.37;100678.72;5025488;28;20658;-67
2022/08/14 04:21:35;;;;;;;1.55;1.27;;;;;;;23.85;72.44;100675.53;5017490;28;20041;-68
2022/08/14 04:24:01;;;;;;;1.83;1.30;;;;;;;23.89;72.64;100679.72;5028567;28;20128;-67
2022/08/14 04:26:28;;;;;;;1.92;1.48;;;;;;;23.81;73.03;100674.91;5010879;28;20483;-67
2022/08/14 04:28:54;;;;;;;1.20;1.10;;;;;;;23.79;73.34;100677.34;5030783;28;20029;-68
2022/08/14 04:31:22;;;;;;;2.05;1.55;;;;;;;23.79;73.64;100669.09;5012917;28;20044;-66
2022/08/14 04:33:48;;;;;;;3.17;1.50;;;;;;;23.91;72.68;100671.00;5014602;28;20120;-67
2022/08/14 04:36:13;;;;;;;2.78;1.63;;;;;;;23.87;73.22;100667.59;5014085;28;20450;-66
2022/08/14 04:44:09;;;;;;;2.47;1.50;;;;;;;23.83;73.96;100666.94;5009487;28;20498;-67
2022/08/14 04:46:35;;;;;;;2.47;1.63;;;;;;;23.83;74.07;100666.94;5008452;28;20072;-69
2022/08/14 04:49:03;;;;;;;2.60;1.50;;;;;;;23.86;73.64;100666.84;5009983;28;20040;-66
2022/08/14 04:51:30;;;;;;;2.35;1.52;;;;;;;23.77;74.28;100664.00;4996797;28;20413;-66
2022/08/14 04:53:55;;;;;;;2.72;1.60;;;;;;;23.78;74.28;100662.81;5030990;28;20133;-72
2022/08/14 04:56:23;;;;;;;4.22;1.48;;;;;;;23.82;73.88;100655.19;5030056;28;20446;-66
2022/08/14 04:58:54;;;;;;;3.38;1.35;;;;;;;23.97;73.33;100656.25;5027088;28;20470;-66
2022/08/14 05:01:20;;;;;;;1.75;1.65;;;;;;;23.95;73.11;100666.94;5022183;28;20108;-67
2022/08/14 05:03:45;;;;;;;2.15;1.63;;;;;;;23.99;72.89;100664.03;5030532;28;20041;-69
2022/08/14 05:06:11;;;;;;;2.38;1.40;;;;;;;23.89;73.81;100660.44;5031242;28;20124;-67
2022/08/14 05:08:38;;;;;;;2.90;1.40;;;;;;;24.00;72.98;100668.34;5030249;28;20045;-67
2022/08/14 05:11:06;;;;;;;2.33;1.42;;;;;;;24.05;73.42;100656.78;5028054;28;20176;-66
2022/08/14 05:13:33;;;;;;;1.92;1.50;;;;;;;24.04;73.35;100666.28;5024330;28;20598;-66
2022/08/14 05:16:00;;;;;;;2.13;1.50;;;;;;;23.92;74.01;100659.56;5023148;28;20038;-66
2022/08/14 05:18:30;;;;;;;4.30;1.83;;;;;;;23.94;74.11;100657.13;5030283;28;20034;-66
2022/08/14 05:20:58;;;;;;;3.13;1.70;;;;;;;24.01;74.30;100651.38;5030346;28;20044;-69
2022/08/14 05:23:28;;;;;;;2.30;1.67;;;;;;;24.14;73.98;100654.88;5011940;28;20397;-69
2022/08/14 05:26:02;;;;;;;2.20;1.50;;;;;;;24.28;73.55;100656.34;5030612;28;20116;-69
2022/08/14 05:28:34;;;;;;;4.63;1.48;;;;;;;24.35;72.80;100655.34;5029285;28;20137;-69
2022/08/14 05:31:02;;;;;;;2.30;1.60;;;;;;;24.34;73.99;100654.56;5021905;28;20025;-69
2022/08/14 05:33:30;;;;;;;3.63;1.58;;;;;;;24.31;74.54;100646.44;5029307;28;20036;-69
2022/08/14 05:36:00;;;;;;;4.50;2.67;;;;;;;24.38;73.88;100655.22;5025169;28;20646;-68
2022/08/14 05:38:32;;;;;;;2.95;2.10;;;;;;;24.43;73.81;100648.38;5027432;28;20044;-69
2022/08/14 05:41:03;;;;;;;2.40;1.52;;;;;;;24.66;73.69;100645.13;5029160;28;20045;-69
2022/08/14 05:43:30;;;;;;;2.17;1.48;;;;;;;24.90;71.90;100649.72;5029876;28;20025;-69
2022/08/14 05:46:00;;;;;;;2.35;1.85;;;;;;;25.11;71.44;100647.34;4991674;28;20082;-69
2022/08/14 05:48:27;;;;;;;4.55;1.63;;;;;;;25.26;71.03;100642.81;5028593;28;20424;-69
2022/08/14 05:50:54;;;;;;;2.17;1.42;;;;;;;25.17;71.36;100635.25;5034639;28;20034;-68
2022/08/14 05:53:24;;;;;;;2.13;1.45;;;;;;;25.40;70.29;100637.50;5038277;28;20113;-69
2022/08/14 05:55:51;;;;;;;1.75;1.60;;;;;;;25.48;70.92;100632.47;5038221;28;20509;-68
2022/08/14 05:58:16;;;;;;;4.82;1.70;;;;;;;25.39;70.60;100635.97;5042648;28;20029;-69
2022/08/14 06:00:43;;;;;;;5.43;1.75;;;;;;;25.43;70.18;100631.09;5029706;28;20095;-69
2022/08/14 06:03:15;;;;;;;2.13;1.45;;;;;;;25.66;71.33;100638.00;5025356;28;20069;-69
2022/08/14 06:05:48;;;;;;;3.13;1.58;;;;;;;25.84;68.90;100638.78;5029059;28;20061;-68
2022/08/14 06:08:18;;;;;;;2.47;1.52;;;;;;;25.85;69.35;100626.53;5030324;28;20174;-69
2022/08/14 06:10:44;;;;;;;1.58;1.25;;;;;;;26.12;69.06;100628.53;5033934;28;20470;-68
2022/08/14 06:13:09;;;;;;;3.22;1.30;;;;;;;26.49;68.11;100624.50;5014951;28;20076;-68
2022/08/14 06:15:35;;;;;;;1.55;1.40;;;;;;;26.75;65.99;100631.19;5033602;28;20044;-69
2022/08/14 06:18:00;;;;;;;4.00;1.85;;;;;;;26.65;65.20;100626.88;5033018;28;20115;-69
2022/08/14 06:20:26;;;;;;;2.40;1.50;;;;;;;26.82;65.40;100618.28;5029933;28;20044;-69
2022/08/14 06:22:52;;;;;;;1.60;1.50;;;;;;;27.00;65.90;100616.22;5014029;28;20498;-69
2022/08/14 06:25:18;;;;;;;2.70;1.70;;;;;;;27.21;63.94;100611.63;5030384;28;20096;-69
2022/08/14 06:27:46;;;;;;;1.60;1.50;;;;;;;27.14;63.47;100609.22;5014005;28;20041;-69
2022/08/14 06:30:20;;;;;;;1.65;1.50;;;;;;;27.21;63.26;100603.34;5032758;28;20048;-69
2022/08/14 06:33:06;;;;;;;2.25;1.45;;;;;;;27.25;63.46;100606.69;5027860;28;20042;-69
2022/08/14 06:35:31;;;;;;;2.50;1.50;;;;;;;27.41;63.76;100609.84;4956299;28;20039;-69
2022/08/14 06:37:59;;;;;;;1.50;1.40;;;;;;;27.31;64.05;100607.59;4935347;29;20505;-70
2022/08/14 06:40:27;;;;;;;2.55;1.55;;;;;;;27.48;62.63;100603.19;4949207;29;20047;-70
2022/08/14 06:42:54;;;;;;;2.47;1.50;;;;;;;27.72;62.09;100617.75;4926722;29;20560;-70
2022/08/14 06:45:19;;;;;;;4.07;1.60;;;;;;;27.73;61.62;100608.22;4950327;29;20031;-70
2022/08/14 06:47:46;;;;;;;2.28;1.42;;;;;;;27.81;62.04;100616.94;4950052;29;20439;-70
2022/08/14 06:50:14;;;;;;;1.98;1.50;;;;;;;27.44;63.07;100616.44;4950732;29;21805;-70
2022/08/14 06:52:41;;;;;;;1.55;1.38;;;;;;;27.36;63.96;100612.50;4942264;28;20120;-70
2022/08/14 06:55:09;;;;;;;1.92;1.50;;;;;;;26.85;64.84;100611.81;4946774;29;20043;-70
2022/08/14 06:57:55;;;;;;;3.47;1.45;;;;;;;27.13;66.56;100602.16;4943623;28;20032;-70
2022/08/14 07:00:23;;;;;;;1.77;1.42;;;;;;;27.66;64.59;100609.34;4932478;29;20056;-70
2022/08/14 07:08:19;;;;;;;3.03;1.65;;;;;;;27.69;61.10;100599.34;4949797;29;20039;-71
2022/08/14 07:10:50;;;;;;;2.15;1.48;;;;;;;27.88;62.45;100599.94;4946937;28;20081;-70
2022/08/14 07:13:17;;;;;;;1.95;1.55;;;;;;;28.11;62.86;100601.91;5009890;28;20057;-70
2022/08/14 07:15:49;;;;;;;2.15;1.40;;;;;;;28.43;62.09;100601.00;5004364;28;20018;-70
2022/08/14 07:18:21;;;;;;;2.70;1.50;;;;;;;28.20;61.66;100597.06;5024031;28;20032;-70
2022/08/14 07:20:47;;;;;;;3.70;1.70;;;;;;;28.62;59.90;100596.03;5021960;28;20490;-70
2022/08/14 07:23:13;;;;;;;2.10;1.80;;;;;;;28.78;59.46;100589.97;5030019;28;20029;-71
2022/08/14 07:25:41;;;;;;;5.18;1.77;;;;;;;29.05;58.08;100595.16;5025689;28;20034;-70
2022/08/14 07:28:10;;;;;;;2.28;1.60;;;;;;;29.16;57.03;100589.78;5007289;28;20120;-70
2022/08/14 07:30:36;;;;;;;2.20;1.33;;;;;;;29.40;56.95;100593.16;5007779;28;20045;-70
2022/08/14 07:33:02;;;;;;;2.45;1.75;;;;;;;29.61;56.45;100591.91;5023046;28;20045;-70
2022/08/14 07:35:28;;;;;;;1.50;1.40;;;;;;;29.78;56.45;100592.09;5022464;28;20065;-70
2022/08/14 07:37:53;;;;;;;2.08;1.58;;;;;;;29.45;56.39;100589.66;5009575;28;20065;-70
2022/08/14 07:40:19;;;;;;;3.15;1.50;;;;;;;29.60;57.58;100600.72;5025948;28;20378;-71
2022/08/14 07:42:44;;;;;;;2.17;1.60;;;;;;;29.73;56.02;100592.81;5026826;28;20030;-69
2022/08/14 07:45:10;;;;;;;4.45;1.55;;;;;;;29.82;56.33;100593.44;5029541;28;20493;-69
2022/08/14 07:47:41;;;;;;;2.33;1.52;;;;;;;30.15;56.17;100588.22;5011088;28;20508;-69
2022/08/14 07:50:17;;;;;;;2.20;1.35;;;;;;;30.30;54.55;100590.88;5022724;28;20021;-69
2022/08/14 07:52:44;;;;;;;1.50;1.40;;;;;;;30.54;54.31;100596.16;5000990;28;20041;-70
2022/08/14 07:55:12;;;;;;;1.70;1.55;;;;;;;30.65;53.77;100602.56;5007433;28;20052;-69
2022/08/14 07:57:39;;;;;;;2.33;1.40;;;;;;;30.64;53.73;100600.28;5012166;28;20074;-69
2022/08/14 08:00:11;;;;;;;4.35;1.50;;;;;;;30.85;53.92;100598.94;5020862;28;20021;-69
2022/08/14 08:02:42;;;;;;;3.97;1.50;;;;;;;30.99;53.00;100598.03;5022327;28;20153;-69
2022/08/14 08:05:09;;;;;;;3.47;1.95;;;;;;;30.98;53.67;100602.06;5020014;28;20516;-69
2022/08/14 08:07:36;;;;;;;1.90;1.38;;;;;;;31.15;52.54;100602.91;4988733;28;20405;-69
2022/08/14 08:10:30;;;;;;;2.75;1.73;;;;;;;31.25;51.44;100595.88;5023153;28;20036;-69
2022/08/14 08:13:02;;;;;;;1.63;1.23;;;;;;;31.46;51.41;100594.50;4993217;28;20037;-69
2022/08/14 08:15:31;;;;;;;1.48;1.38;;;;;;;31.48;50.60;100591.97;5023334;28;20505;-69
2022/08/14 08:17:58;;;;;;;1.70;1.30;;;;;;;31.63;50.04;100597.34;5014533;28;20025;-69
2022/08/14 08:20:25;;;;;;;2.25;1.58;;;;;;;31.53;49.91;100594.03;5016423;28;20037;-69
2022/08/14 08:22:53;;;;;;;1.40;1.30;;;;;;;31.40;51.84;100596.50;5024697;28;20079;-69
2022/08/14 08:25:18;;;;;;;1.45;1.30;;;;;;;31.32;52.17;100595.41;5029914;28;20033;-69
2022/08/14 08:28:20;;;;;;;2.63;1.65;;;;;;;31.22;51.23;100591.31;5029172;28;20409;-69
2022/08/14 08:30:49;;;;;;;2.00;1.60;;;;;;;31.11;51.73;100591.25;4968476;28;20046;-69
2022/08/14 08:33:15;;;;;;;4.90;1.52;;;;;;;30.70;52.60;100587.91;5014305;28;20034;-70
2022/08/14 08:35:42;;;;;;;4.22;1.55;;;;;;;30.84;52.19;100584.25;5029090;28;20029;-71
2022/08/14 08:38:10;;;;;;;1.90;1.70;;;;;;;31.10;51.86;100582.16;5008331;28;20121;-71
2022/08/14 08:40:42;;;;;;;2.33;1.70;;;;;;;31.02;51.90;100583.09;5018755;28;20048;-69
2022/08/14 08:43:20;;;;;;;2.22;1.48;;;;;;;31.21;53.30;100581.44;5025368;28;20033;-69
2022/08/14 08:46:09;;;;;;;5.15;1.55;;;;;;;31.50;51.32;100580.31;5013531;28;20042;-69
2022/08/14 08:48:51;;;;;;;2.95;1.60;;;;;;;31.51;50.96;100587.44;5030410;28;20424;-71
2022/08/14 08:51:25;;;;;;;1.63;1.48;;;;;;;31.83;51.79;100589.56;5030501;28;20056;-68
2022/08/14 08:54:04;;;;;;;1.50;1.40;;;;;;;31.88;50.60;100586.00;5028945;28;20045;-68
2022/08/14 08:56:44;;;;;;;2.03;1.60;;;;;;;32.15;50.60;100575.44;5018411;28;20037;-69
2022/08/14 08:59:16;;;;;;;3.22;1.52;;;;;;;32.50;50.86;100572.94;5021341;28;20033;-68
2022/08/14 09:01:46;;;;;;;2.72;1.75;;;;;;;32.58;49.22;100580.28;5012226;28;20116;-71
2022/08/14 09:04:13;;;;;;;2.60;1.50;;;;;;;32.88;49.52;100579.72;5012644;28;20494;-69
2022/08/14 09:06:46;;;;;;;1.98;1.77;;;;;;;33.10;48.45;100580.47;5023131;28;20030;-69
2022/08/14 09:09:24;;;;;;;1.77;1.67;;;;;;;33.15;47.97;100571.31;5022483;28;20036;-70
2022/08/14 09:11:53;;;;;;;2.15;1.42;;;;;;;33.04;48.10;100578.97;5030602;28;20565;-71
2022/08/14 09:14:20;;;;;;;2.25;1.55;;;;;;;32.91;48.10;100585.06;5011192;28;20155;-69
2022/08/14 09:16:47;;;;;;;5.60;2.05;;;;;;;32.90;49.27;100577.19;5013384;28;20502;-69
2022/08/14 09:19:14;;;;;;;2.13;1.80;;;;;;;32.85;49.45;100575.94;5009401;28;20044;-69
2022/08/14 09:21:40;;;;;;;1.83;1.38;;;;;;;32.92;49.61;100575.41;5030655;28;20515;-69
2022/08/14 09:24:08;;;;;;;2.92;1.80;;;;;;;32.95;48.83;100573.66;5012778;28;20042;-69
2022/08/14 09:26:34;;;;;;;2.50;1.90;;;;;;;32.88;48.86;100572.13;5004737;28;20041;-69
2022/08/14 09:29:03;;;;;;;4.55;1.58;;;;;;;33.01;48.01;100572.38;4995852;28;20060;-70
2022/08/14 09:31:31;;;;;;;6.68;2.50;;;;;;;33.09;47.05;100573.38;5028943;28;20065;-69
2022/08/14 09:33:57;;;;;;;2.17;1.50;;;;;;;32.96;48.06;100567.56;5024033;28;20029;-69
2022/08/14 09:36:35;;;;;;;2.25;1.67;;;;;;;33.36;48.03;100564.13;5004152;28;20037;-70
2022/08/14 09:39:11;;;;;;;3.58;2.13;;;;;;;33.54;47.52;100560.78;5005434;28;20106;-70
2022/08/14 09:42:21;;;;;;;2.50;1.67;;;;;;;33.60;47.73;100555.16;5010872;28;20081;-70
2022/08/14 09:45:19;;;;;;;3.30;1.80;;;;;;;33.51;46.79;100550.63;5014784;28;20045;-71
2022/08/14 09:47:47;;;;;;;3.08;1.80;;;;;;;33.68;47.29;100542.16;5014164;28;20052;-70
2022/08/14 09:50:20;;;;;;;3.08;1.90;;;;;;;33.75;46.42;100543.63;5020849;28;20492;-72
2022/08/14 09:53:04;;;;;;;1.98;1.75;;;;;;;33.62;47.56;100547.00;5027882;28;20037;-69
2022/08/14 09:55:34;;;;;;;2.13;1.92;;;;;;;33.53;47.63;100536.13;5030445;28;20561;-69
2022/08/14 09:58:16;;;;;;;1.88;1.70;;;;;;;33.38;47.09;100544.03;5015023;28;20029;-69
2022/08/14 10:00:47;;;;;;;1.80;1.70;;;;;;;33.24;48.16;100537.50;5032078;28;20084;-70
2022/08/14 10:03:34;;;;;;;2.25;1.70;;;;;;;33.16;48.13;100544.16;5005444;28;20043;-69
2022/08/14 10:06:11;;;;;;;2.05;1.85;;;;;;;33.09;48.55;100534.28;4998829;28;20029;-69
2022/08/14 10:08:49;;;;;;;3.30;2.00;;;;;;;33.04;49.10;100523.13;5023922;28;20021;-69
2022/08/14 10:11:26;;;;;;;2.78;1.80;;;;;;;32.93;49.20;100529.47;5032964;28;20049;-71
2022/08/14 10:13:55;;;;;;;2.33;1.73;;;;;;;32.97;48.96;100521.63;4995785;28;20110;-70
2022/08/14 10:16:25;;;;;;;2.42;1.80;;;;;;;33.09;48.93;100523.09;5003184;28;20425;-71
2022/08/14 10:19:14;;;;;;;2.43;1.90;;;;;;;33.27;48.45;100511.34;5008697;28;20021;-71
2022/08/14 10:21:46;;;;;;;2.22;1.85;;;;;;;33.47;47.89;100511.00;5015795;28;20335;-70
2022/08/14 10:24:27;;;;;;;2.63;1.92;;;;;;;33.82;48.21;100504.66;5024885;28;20513;-72
2022/08/14 10:26:57;;;;;;;;;;;;;;;33.85;47.18;100505.69;5029364;28;20480;-71
2022/08/14 10:29:34;;;;;;;2.90;2.00;;;;;;;33.69;46.55;100501.72;5008353;28;20634;-71
2022/08/14 10:32:00;;;;;;;3.78;2.08;;;;;;;33.47;47.39;100507.47;5020362;28;20060;-68
2022/08/14 10:34:35;;;;;;;2.75;2.25;;;;;;;33.19;47.96;100504.78;5027210;28;20029;-72
2022/08/14 10:37:06;;;;;;;2.03;1.70;;;;;;;33.06;48.37;100503.81;5022470;28;20029;-70
2022/08/14 10:39:32;;;;;;;2.55;1.95;;;;;;;32.87;48.39;100494.47;5031432;28;20039;-71
2022/08/14 10:42:12;;;;;;;2.22;1.70;;;;;;;32.75;49.09;100497.28;5023659;28;20045;-70
2022/08/14 10:44:41;;;;;;;2.47;1.70;;;;;;;32.49;49.15;100494.06;5021829;28;20037;-71
2022/08/14 10:47:09;;;;;;;1.70;1.60;;;;;;;32.45;49.97;100493.56;5028663;28;20055;-71
2022/08/14 10:49:49;;;;;;;2.30;1.92;;;;;;;32.56;49.69;100496.31;4999490;28;20382;-70
2022/08/14 10:52:24;;;;;;;3.67;2.22;;;;;;;32.25;50.06;100491.00;5019118;28;20056;-71
2022/08/14 10:54:52;;;;;;;2.30;2.05;;;;;;;32.19;50.50;100492.28;5029797;28;20025;-70
2022/08/14 10:57:23;;;;;;;3.80;1.83;;;;;;;32.21;50.23;100490.50;5005577;28;20049;-69
2022/08/14 10:59:54;;;;;;;4.43;1.88;;;;;;;32.22;50.13;100488.47;5025977;28;20151;-70
2022/08/14 11:02:27;;;;;;;2.50;2.10;;;;;;;32.26;50.26;100488.97;5030244;28;20041;-72
2022/08/14 11:04:57;;;;;;;3.75;2.35;;;;;;;32.11;50.59;100482.91;5026816;28;20041;-71
2022/08/14 11:07:23;;;;;;;3.67;2.28;;;;;;;32.10;50.29;100473.00;5013336;28;20045;-70
2022/08/14 11:09:58;;;;;;;2.28;2.05;;;;;;;32.11;50.61;100475.31;5005970;28;20029;-70
2022/08/14 11:12:25;;;;;;;3.03;2.08;;;;;;;32.02;50.44;100474.81;5027324;28;20697;-71
2022/08/14 11:14:59;;;;;;;2.20;2.00;;;;;;;32.09;50.43;100474.28;5028523;28;20439;-71
2022/08/14 11:17:29;;;;;;;4.07;2.28;;;;;;;32.15;50.38;100475.06;5029367;28;20056;-71
2022/08/14 11:19:59;;;;;;;3.05;2.35;;;;;;;32.09;50.57;100472.28;5015900;28;20497;-71
2022/08/14 11:22:30;;;;;;;3.08;2.20;;;;;;;32.04;50.62;100469.50;5010624;28;20050;-71
2022/08/14 11:25:03;;;;;;;6.07;2.60;;;;;;;32.07;50.57;100479.63;5025295;28;20375;-71
2022/08/14 11:27:30;;;;;;;3.45;2.25;;;;;;;31.96;51.46;100469.97;5032006;28;20033;-71
2022/08/14 11:30:00;;;;;;;2.67;2.35;;;;;;;32.07;50.46;100471.25;5032473;28;20064;-69
2022/08/14 11:32:28;;;;;;;2.47;2.00;;;;;;;32.03;50.86;100462.38;5031264;28;20048;-70
2022/08/14 11:34:53;;;;;;;6.15;2.25;;;;;;;32.13;50.83;100466.44;5039539;28;20043;-71
2022/08/14 11:37:20;;;;;;;3.92;2.15;;;;;;;32.13;51.38;100456.06;5031979;28;20397;-71
2022/08/14 11:40:05;;;;;;;3.92;2.50;;;;;;;32.16;51.33;100454.25;5008545;28;20038;-71
2022/08/14 11:42:31;;;;;;;3.28;2.10;;;;;;;32.28;51.07;100441.81;4943313;29;20437;-71
2022/08/14 11:45:02;;;;;;;3.88;2.20;;;;;;;32.43;51.53;100434.69;4950975;29;20102;-71
2022/08/14 11:47:31;;;;;;;3.90;2.50;;;;;;;32.58;50.55;100423.25;4932180;29;20051;-71